createdAt,value
2018-11-07T00:01:10.158Z,87.40
2018-11-07T00:03:40.043Z,86.54
2018-11-07T00:06:25.550Z,87.64
2018-11-07T00:09:00.171Z,86.97
2018-11-07T00:11:37.271Z,87.48
2018-11-07T00:14:06.315Z,87.25
2018-11-07T00:16:35.234Z,86.68
2018-11-07T00:19:14.890Z,86.64
2018-11-07T00:21:44.274Z,86.83
2018-11-07T00:24:13.133Z,86.83
2018-11-07T00:26:42.036Z,86.56
2018-11-07T00:32:15.631Z,87.28
2018-11-07T00:34:44.550Z,87.43
2018-11-07T00:37:18.382Z,88.00
2018-11-07T00:39:47.292Z,87.55
2018-11-07T00:42:40.798Z,87.24
2018-11-07T00:45:11.464Z,87.03
2018-11-07T00:47:41.552Z,86.18
2018-11-07T00:50:13.190Z,86.60
2018-11-07T00:52:42.635Z,86.18
2018-11-07T01:00:59.118Z,86.89
2018-11-07T01:03:31.745Z,86.63
2018-11-07T01:06:04.803Z,85.92
2018-11-07T01:11:36.734Z,86.01
2018-11-07T01:14:06.798Z,86.11
2018-11-07T01:16:35.874Z,85.95
2018-11-07T01:19:11.477Z,85.21
2018-11-07T01:21:42.480Z,84.69
2018-11-07T01:24:11.407Z,85.71
2018-11-07T01:26:53.560Z,85.18
2018-11-07T01:29:25.592Z,85.07
2018-11-07T01:31:54.597Z,84.33
2018-11-07T01:34:28.304Z,84.06
2018-11-07T01:36:58.189Z,84.54
2018-11-07T01:39:39.493Z,84.23
2018-11-07T01:42:20.103Z,84.36
2018-11-07T01:44:55.096Z,83.89
2018-11-07T01:47:23.991Z,84.24
2018-11-07T01:49:52.880Z,84.38
2018-11-07T01:52:21.744Z,84.54
2018-11-07T01:54:56.319Z,84.78
2018-11-07T01:57:38.105Z,84.61
2018-11-07T02:00:09.121Z,84.58
2018-11-07T02:02:38.026Z,85.37
2018-11-07T02:05:06.988Z,85.03
2018-11-07T02:07:35.928Z,84.54
2018-11-07T02:10:09.693Z,84.65
2018-11-07T02:12:46.483Z,84.75
2018-11-07T02:15:15.388Z,85.04
2018-11-07T02:17:44.257Z,84.62
2018-11-07T02:20:18.945Z,84.23
2018-11-07T02:22:47.832Z,84.59
2018-11-07T02:25:16.746Z,85.25
2018-11-07T02:27:45.642Z,85.43
2018-11-07T02:30:16.612Z,84.63
2018-11-07T02:32:45.752Z,84.92
2018-11-07T02:35:14.639Z,84.44
2018-11-07T02:37:48.515Z,84.74
2018-11-07T02:40:17.916Z,84.73
2018-11-07T02:42:46.917Z,85.30
2018-11-07T02:45:18.996Z,85.46
2018-11-07T02:47:52.689Z,84.73
2018-11-07T02:50:21.613Z,85.29
2018-11-07T02:53:03.759Z,85.14
2018-11-07T02:55:44.987Z,84.50
2018-11-07T02:58:13.967Z,83.60
2018-11-07T03:00:46.117Z,83.33
2018-11-07T03:03:24.549Z,83.69
2018-11-07T03:05:57.902Z,84.37
2018-11-07T03:08:32.793Z,84.63
2018-11-07T03:13:58.204Z,85.31
2018-11-07T03:16:35.452Z,84.91
2018-11-07T03:19:04.696Z,84.19
2018-11-07T03:21:37.209Z,85.15
2018-11-07T03:24:13.980Z,85.72
2018-11-07T03:26:42.864Z,86.24
2018-11-07T03:29:11.818Z,85.39
2018-11-07T03:31:40.729Z,85.37
2018-11-07T03:34:34.016Z,85.88
2018-11-07T03:37:08.384Z,85.95
2018-11-07T03:39:38.335Z,86.19
2018-11-07T03:42:15.383Z,85.36
2018-11-07T03:44:44.369Z,86.12
2018-11-07T03:47:13.252Z,85.51
2018-11-07T03:49:42.142Z,85.78
2018-11-07T03:52:11.053Z,85.25
2018-11-07T03:54:39.896Z,85.52
2018-11-07T04:00:09.622Z,84.81
2018-11-07T04:02:38.946Z,85.31
2018-11-07T04:05:09.302Z,85.36
2018-11-07T04:07:41.511Z,84.49
2018-11-07T04:10:10.438Z,84.73
2018-11-07T04:12:39.365Z,85.40
2018-11-07T04:15:08.831Z,85.60
2018-11-07T04:17:40.590Z,85.32
2018-11-07T04:20:21.378Z,85.06
2018-11-07T04:22:50.216Z,85.73
2018-11-07T04:25:19.089Z,85.09
2018-11-07T04:27:47.980Z,85.62
2018-11-07T04:30:29.754Z,85.37
2018-11-07T04:32:58.720Z,85.76
2018-11-07T04:35:27.648Z,85.72
2018-11-07T04:38:02.138Z,84.20
2018-11-07T04:40:31.513Z,84.43
2018-11-07T04:43:03.466Z,84.92
2018-11-07T04:45:36.002Z,85.03
2018-11-07T04:48:06.280Z,85.41
2018-11-07T04:50:48.206Z,85.25
2018-11-07T04:53:26.899Z,85.46
2018-11-07T04:55:56.819Z,85.16
2018-11-07T04:58:37.064Z,84.94
2018-11-07T05:01:12.896Z,85.10
2018-11-07T05:03:43.931Z,84.95
2018-11-07T05:06:14.924Z,84.99
2018-11-07T05:08:55.971Z,84.68
2018-11-07T05:11:28.899Z,85.17
2018-11-07T05:14:02.572Z,84.11
2018-11-07T05:16:45.784Z,83.88
2018-11-07T05:19:26.717Z,83.96
2018-11-07T05:22:03.760Z,83.50
2018-11-07T05:24:33.687Z,83.08
2018-11-07T05:27:26.015Z,82.76
2018-11-07T05:29:55.976Z,83.78
2018-11-07T05:32:38.574Z,83.99
2018-11-07T05:35:10.892Z,83.17
2018-11-07T05:37:45.982Z,83.28
2018-11-07T05:40:16.995Z,83.64
2018-11-07T05:42:56.729Z,82.94
2018-11-07T05:45:32.611Z,83.45
2018-11-07T05:48:01.592Z,82.50
2018-11-07T05:50:31.519Z,83.37
2018-11-07T05:53:00.493Z,83.17
2018-11-07T05:55:36.619Z,83.00
2018-11-07T05:58:11.273Z,83.54
2018-11-07T06:00:43.845Z,83.79
2018-11-07T06:03:28.878Z,83.63
2018-11-07T06:05:57.800Z,83.67
2018-11-07T06:08:26.716Z,83.33
2018-11-07T06:10:55.656Z,83.18
2018-11-07T06:13:31.999Z,82.33
2018-11-07T06:16:09.115Z,82.53
2018-11-07T06:18:38.009Z,82.97
2018-11-07T06:21:08.341Z,83.06
2018-11-07T06:23:51.496Z,83.98
2018-11-07T06:26:36.655Z,83.77
2018-11-07T06:29:08.945Z,83.57
2018-11-07T06:31:41.898Z,82.95
2018-11-07T06:34:11.907Z,82.73
2018-11-07T06:36:46.375Z,83.10
2018-11-07T06:39:21.018Z,83.94
2018-11-07T06:41:59.547Z,83.54
2018-11-07T06:44:28.620Z,83.72
2018-11-07T06:46:59.429Z,83.37
2018-11-07T06:49:45.406Z,83.42
2018-11-07T06:52:17.597Z,83.35
2018-11-07T06:55:01.103Z,82.87
2018-11-07T07:00:34.015Z,83.11
2018-11-07T07:03:05.798Z,82.35
2018-11-07T07:05:35.726Z,82.17
2018-11-07T07:08:20.739Z,82.05
2018-11-07T07:10:54.782Z,82.04
2018-11-07T07:13:25.835Z,81.51
2018-11-07T07:15:55.818Z,81.65
2018-11-07T07:18:24.740Z,81.20
2018-11-07T07:20:57.226Z,80.67
2018-11-07T07:23:43.093Z,80.58
2018-11-07T07:26:28.899Z,80.42
2018-11-07T07:32:04.461Z,79.57
2018-11-07T07:34:33.432Z,80.06
2018-11-07T07:37:15.445Z,79.98
2018-11-07T07:39:49.250Z,79.89
2018-11-07T07:42:20.316Z,79.44
2018-11-07T07:44:51.244Z,79.31
2018-11-07T07:47:26.240Z,79.22
2018-11-07T07:50:07.117Z,79.33
2018-11-07T07:52:41.841Z,79.46
2018-11-07T07:55:14.635Z,79.17
2018-11-07T07:57:53.430Z,78.53
2018-11-07T08:00:41.807Z,78.18
2018-11-07T08:03:11.893Z,77.07
2018-11-07T08:05:55.540Z,77.33
2018-11-07T08:08:43.697Z,76.87
2018-11-07T08:11:16.685Z,76.58
2018-11-07T08:13:58.434Z,75.75
2018-11-07T08:16:34.876Z,76.24
2018-11-07T08:24:57.571Z,75.66
2018-11-07T08:27:30.850Z,75.70
2018-11-07T08:35:53.341Z,75.21
2018-11-07T08:38:22.360Z,74.36
2018-11-07T08:40:51.274Z,74.80
2018-11-07T08:46:25.625Z,74.55
2018-11-07T08:48:58.111Z,74.60
2018-11-07T08:51:30.797Z,74.05
2018-11-07T08:54:05.576Z,74.34
2018-11-07T08:56:37.586Z,72.96
2018-11-07T08:59:07.677Z,73.59
2018-11-07T09:01:48.492Z,73.75
2018-11-07T09:04:29.305Z,73.87
2018-11-07T09:07:01.352Z,72.43
2018-11-07T09:09:31.396Z,73.04
2018-11-07T09:12:03.795Z,72.26
2018-11-07T09:14:32.734Z,71.57
2018-11-07T09:17:07.021Z,70.77
2018-11-07T09:19:39.808Z,70.53
2018-11-07T09:22:08.711Z,70.48
2018-11-07T09:24:49.569Z,69.78
2018-11-07T09:27:18.449Z,68.63
2018-11-07T09:29:47.313Z,68.94
2018-11-07T09:32:16.205Z,69.17
2018-11-07T09:34:46.662Z,68.49
2018-11-07T09:37:15.579Z,68.31
2018-11-07T09:39:44.495Z,68.71
2018-11-07T09:42:24.661Z,68.17
2018-11-07T09:45:12.090Z,67.67
2018-11-07T09:47:41.962Z,67.79
2018-11-07T09:50:13.685Z,67.00
2018-11-07T09:52:44.029Z,67.82
2018-11-07T09:58:09.106Z,66.94
2018-11-07T10:00:42.784Z,67.85
2018-11-07T10:03:19.465Z,66.46
2018-11-07T10:05:59.488Z,66.65
2018-11-07T10:08:47.015Z,67.66
2018-11-07T10:11:39.620Z,67.40
2018-11-07T10:14:12.410Z,66.83
2018-11-07T10:16:42.358Z,67.29
2018-11-07T10:19:13.305Z,67.52
2018-11-07T10:21:43.269Z,65.92
2018-11-07T10:24:31.755Z,66.60
2018-11-07T10:27:00.779Z,66.37
2018-11-07T10:29:29.774Z,65.90
2018-11-07T10:31:58.452Z,66.41
2018-11-07T10:34:27.382Z,65.30
2018-11-07T10:36:56.323Z,64.82
2018-11-07T10:39:35.390Z,64.91
2018-11-07T10:42:04.269Z,63.86
2018-11-07T10:44:33.193Z,63.53
2018-11-07T10:47:02.123Z,64.72
2018-11-07T10:49:31.026Z,63.35
2018-11-07T10:52:18.618Z,63.33
2018-11-07T10:54:47.476Z,63.01
2018-11-07T10:57:16.360Z,62.59
2018-11-07T10:59:45.222Z,62.56
2018-11-07T11:02:26.808Z,61.62
2018-11-07T11:04:57.785Z,62.50
2018-11-07T11:07:40.101Z,62.29
2018-11-07T11:10:09.068Z,62.00
2018-11-07T11:12:37.917Z,60.61
2018-11-07T11:15:06.836Z,61.81
2018-11-07T11:17:39.259Z,60.02
2018-11-07T11:20:15.756Z,59.38
2018-11-07T11:22:44.630Z,59.51
2018-11-07T11:25:13.568Z,58.95
2018-11-07T11:27:42.438Z,59.23
2018-11-07T11:30:11.302Z,59.26
2018-11-07T11:32:40.393Z,58.83
2018-11-07T11:35:14.060Z,59.51
2018-11-07T11:37:51.105Z,59.03
2018-11-07T11:40:23.709Z,59.07
2018-11-07T11:42:52.559Z,59.17
2018-11-07T11:45:45.515Z,58.95
2018-11-07T11:48:27.100Z,59.09
2018-11-07T11:51:01.434Z,58.81
2018-11-07T11:53:34.438Z,59.38
2018-11-07T11:56:03.311Z,58.81
2018-11-07T11:58:32.227Z,58.15
2018-11-07T12:01:01.110Z,58.93
2018-11-07T12:03:30.145Z,58.17
2018-11-07T12:05:59.653Z,58.20
2018-11-07T12:08:29.189Z,59.11
2018-11-07T12:10:58.033Z,58.76
2018-11-07T12:13:33.094Z,58.18
2018-11-07T12:16:01.946Z,57.46
2018-11-07T12:18:30.812Z,57.91
2018-11-07T12:21:07.002Z,57.81
2018-11-07T12:23:35.944Z,58.35
2018-11-07T12:26:04.907Z,58.72
2018-11-07T12:28:33.824Z,59.10
2018-11-07T12:31:02.724Z,59.22
2018-11-07T12:33:38.919Z,59.52
2018-11-07T12:36:07.981Z,59.63
2018-11-07T12:38:37.927Z,60.30
2018-11-07T12:41:12.633Z,60.25
2018-11-07T12:43:48.510Z,60.29
2018-11-07T12:46:30.692Z,59.90
2018-11-07T12:49:12.508Z,60.58
2018-11-07T12:52:00.500Z,59.55
2018-11-07T12:54:29.384Z,60.04
2018-11-07T12:56:58.300Z,59.25
2018-11-07T12:59:30.268Z,59.76
2018-11-07T13:01:59.143Z,58.93
2018-11-07T13:04:28.093Z,59.28
2018-11-07T13:09:57.481Z,57.35
2018-11-07T13:12:26.402Z,57.58
2018-11-07T13:14:59.230Z,56.50
2018-11-07T13:17:42.864Z,56.42
2018-11-07T13:20:14.061Z,55.89
2018-11-07T13:22:43.942Z,55.47
2018-11-07T13:25:16.021Z,55.63
2018-11-07T13:27:51.508Z,55.92
2018-11-07T13:30:26.561Z,55.54
2018-11-07T13:33:01.417Z,54.86
2018-11-07T13:35:34.633Z,55.36
2018-11-07T13:38:05.137Z,55.81
2018-11-07T13:40:35.465Z,56.23
2018-11-07T13:43:04.898Z,55.68
2018-11-07T13:45:37.492Z,55.35
2018-11-07T13:48:19.139Z,55.56
2018-11-07T13:50:48.062Z,56.29
2018-11-07T13:53:20.593Z,56.32
2018-11-07T13:55:54.408Z,56.86
2018-11-07T14:01:20.779Z,56.85
2018-11-07T14:03:55.428Z,57.14
2018-11-07T14:12:13.492Z,57.68
2018-11-07T14:14:53.751Z,58.03
2018-11-07T14:17:22.724Z,57.59
2018-11-07T14:20:02.569Z,57.53
2018-11-07T14:22:31.452Z,58.18
2018-11-07T14:27:54.416Z,58.51
2018-11-07T14:30:23.204Z,57.64
2018-11-07T14:33:10.314Z,58.51
2018-11-07T14:35:57.037Z,58.56
2018-11-07T14:38:48.857Z,59.00
2018-11-07T14:41:18.766Z,59.10
2018-11-07T14:43:53.853Z,58.83
2018-11-07T14:46:28.359Z,58.62
2018-11-07T14:49:12.428Z,59.11
2018-11-07T14:51:42.447Z,59.21
2018-11-07T14:54:33.935Z,59.05
2018-11-07T14:57:17.349Z,59.20
2018-11-07T14:59:47.279Z,59.00
2018-11-07T15:05:16.723Z,59.62
2018-11-07T15:07:45.892Z,59.67
2018-11-07T15:10:20.557Z,59.40
2018-11-07T15:15:50.145Z,59.26
2018-11-07T15:21:17.931Z,59.25
2018-11-07T15:23:58.991Z,59.73
2018-11-07T15:29:22.274Z,62.25
2018-11-07T15:31:57.894Z,64.72
2018-11-07T15:34:30.744Z,66.24
2018-11-07T15:37:09.596Z,67.83
2018-11-07T15:39:46.652Z,70.48
2018-11-07T15:42:15.604Z,73.55
2018-11-07T15:44:57.523Z,72.98
2018-11-07T15:47:30.327Z,77.72
2018-11-07T15:50:05.498Z,79.96
2018-11-07T15:52:42.224Z,80.86
2018-11-07T15:55:25.246Z,82.58
2018-11-07T15:58:06.322Z,84.62
2018-11-07T16:00:41.739Z,86.77
2018-11-07T16:03:25.618Z,87.32
2018-11-07T16:05:54.765Z,88.79
2018-11-07T16:08:31.788Z,89.62
2018-11-07T16:11:02.886Z,91.15
2018-11-07T16:13:37.867Z,91.97
2018-11-07T16:16:07.061Z,91.57
2018-11-07T16:18:40.232Z,93.01
2018-11-07T16:21:15.042Z,93.31
2018-11-07T16:23:43.901Z,94.06
2018-11-07T16:26:34.975Z,93.66
2018-11-07T16:29:11.011Z,95.21
2018-11-07T16:34:34.189Z,95.12
2018-11-07T16:37:03.122Z,94.92
2018-11-07T16:39:31.992Z,95.89
2018-11-07T16:42:01.082Z,96.27
2018-11-07T16:44:35.948Z,96.33
2018-11-07T16:47:05.028Z,96.06
2018-11-07T16:49:39.235Z,95.87
2018-11-07T16:52:22.172Z,95.32
2018-11-07T16:54:53.108Z,97.31
2018-11-07T16:57:22.117Z,96.22
2018-11-07T16:59:55.295Z,96.26
2018-11-07T17:02:25.341Z,96.25
2018-11-07T17:04:54.298Z,97.32
2018-11-07T17:07:24.312Z,96.52
2018-11-07T17:10:02.710Z,95.24
2018-11-07T17:12:32.618Z,96.64
2018-11-07T17:15:13.922Z,95.98
2018-11-07T17:17:42.890Z,96.77
2018-11-07T17:20:14.038Z,95.52
2018-11-07T17:22:45.046Z,96.00
2018-11-07T17:25:26.038Z,96.11
2018-11-07T17:27:55.468Z,95.62
2018-11-07T17:30:24.899Z,96.51
2018-11-07T17:32:59.933Z,97.09
2018-11-07T17:35:33.001Z,96.22
2018-11-07T17:38:02.569Z,96.49
2018-11-07T17:40:36.088Z,96.54
2018-11-07T17:46:03.243Z,96.95
2018-11-07T17:48:39.591Z,96.45
2018-11-07T17:51:09.936Z,97.24
2018-11-07T17:53:39.482Z,97.21
2018-11-07T17:56:14.792Z,97.76
2018-11-07T17:58:48.226Z,97.92
2018-11-07T18:01:21.880Z,97.23
2018-11-07T18:03:57.728Z,98.06
2018-11-07T18:06:26.632Z,97.84
2018-11-07T18:08:57.586Z,98.57
2018-11-07T18:11:45.119Z,98.41
2018-11-07T18:14:14.048Z,98.85
2018-11-07T18:16:43.002Z,97.81
2018-11-07T18:19:16.576Z,97.84
2018-11-07T18:21:46.547Z,98.16
2018-11-07T18:24:15.405Z,98.45
2018-11-07T18:26:48.296Z,97.07
2018-11-07T18:29:30.368Z,96.79
2018-11-07T18:32:06.920Z,96.74
2018-11-07T18:34:36.760Z,96.18
2018-11-07T18:37:06.688Z,96.93
2018-11-07T18:39:36.900Z,95.53
2018-11-07T18:42:17.966Z,96.48
2018-11-07T18:44:50.906Z,95.94
2018-11-07T18:47:23.908Z,95.00
2018-11-07T18:49:57.678Z,95.52
2018-11-07T18:52:30.777Z,94.81
2018-11-07T18:54:59.780Z,94.93
2018-11-07T18:57:40.517Z,94.87
2018-11-07T19:00:21.447Z,92.67
2018-11-07T19:02:54.838Z,92.56
2018-11-07T19:05:23.765Z,91.61
2018-11-07T19:07:59.584Z,91.18
2018-11-07T19:10:34.283Z,91.88
2018-11-07T19:13:04.275Z,90.99
2018-11-07T19:15:37.852Z,90.97
2018-11-07T19:18:13.518Z,90.21
2018-11-07T19:20:55.826Z,89.37
2018-11-07T19:23:29.750Z,90.54
2018-11-07T19:25:58.655Z,88.23
2018-11-07T19:28:40.726Z,88.83
2018-11-07T19:31:13.409Z,89.25
2018-11-07T19:33:42.316Z,89.04
2018-11-07T19:36:13.238Z,89.07
2018-11-07T19:38:42.243Z,88.31
2018-11-07T19:41:11.273Z,89.29
2018-11-07T19:43:46.820Z,88.33
2018-11-07T19:46:30.011Z,88.88
2018-11-07T19:49:07.013Z,88.53
2018-11-07T19:51:39.172Z,88.54
2018-11-07T19:54:08.244Z,88.17
2018-11-07T19:56:37.193Z,87.72
2018-11-07T19:59:11.384Z,88.22
2018-11-07T20:01:40.358Z,88.12
2018-11-07T20:04:12.610Z,86.40
2018-11-07T20:06:47.056Z,86.64
2018-11-07T20:09:23.897Z,87.01
2018-11-07T20:11:57.318Z,87.19
2018-11-07T20:14:32.722Z,86.01
2018-11-07T20:17:09.812Z,86.43
2018-11-07T20:19:43.301Z,86.02
2018-11-07T20:22:17.013Z,85.70
2018-11-07T20:24:47.745Z,84.80
2018-11-07T20:27:27.343Z,85.14
2018-11-07T20:30:01.130Z,85.83
2018-11-07T20:32:33.636Z,86.01
2018-11-07T20:35:14.036Z,85.84
2018-11-07T20:38:00.887Z,86.46
2018-11-07T20:40:37.054Z,85.79
2018-11-07T20:43:06.480Z,86.52
2018-11-07T20:45:37.437Z,87.49
2018-11-07T20:48:08.390Z,87.41
2018-11-07T20:53:44.176Z,88.34
2018-11-07T20:56:14.236Z,88.74
2018-11-07T20:58:45.143Z,89.47
2018-11-07T21:01:16.104Z,89.74
2018-11-07T21:03:45.127Z,88.73
2018-11-07T21:06:19.883Z,88.97
2018-11-07T21:09:01.761Z,88.67
2018-11-07T21:11:38.945Z,88.64
2018-11-07T21:14:08.975Z,89.06
2018-11-07T21:16:46.059Z,89.19
2018-11-07T21:19:20.233Z,88.92
2018-11-07T21:22:07.525Z,89.28
2018-11-07T21:24:36.584Z,89.73
2018-11-07T21:27:05.641Z,89.53
2018-11-07T21:29:37.729Z,88.98
2018-11-07T21:32:08.686Z,88.81
2018-11-07T21:34:37.616Z,88.57
2018-11-07T21:37:09.639Z,88.55
2018-11-07T21:39:40.553Z,88.74
2018-11-07T21:42:09.708Z,88.01
2018-11-07T21:44:42.384Z,89.20
2018-11-07T21:47:17.472Z,89.50
2018-11-07T21:49:54.118Z,89.44
2018-11-07T21:52:25.004Z,88.75
2018-11-07T21:55:01.504Z,89.92
2018-11-07T21:57:37.971Z,89.95
2018-11-07T22:00:12.992Z,90.30
2018-11-07T22:02:42.157Z,90.12
2018-11-07T22:05:19.102Z,89.97
2018-11-07T22:08:00.299Z,89.33
2018-11-07T22:10:31.449Z,89.74
2018-11-07T22:13:04.196Z,89.28
2018-11-07T22:15:38.739Z,89.39
2018-11-07T22:21:04.943Z,87.83
2018-11-07T22:23:41.172Z,87.41
2018-11-07T22:29:03.512Z,87.52
2018-11-07T22:31:45.140Z,87.46
2018-11-07T22:34:14.174Z,87.61
2018-11-07T22:37:01.243Z,87.67
2018-11-07T22:39:52.672Z,87.74
2018-11-07T22:42:33.486Z,87.73
2018-11-07T22:48:06.236Z,87.63
2018-11-07T22:50:39.668Z,86.93
2018-11-07T22:53:18.944Z,87.12
2018-11-07T22:56:01.859Z,87.22
2018-11-07T22:58:31.860Z,87.90
2018-11-07T23:01:13.189Z,87.13
2018-11-07T23:03:42.182Z,87.58
2018-11-07T23:06:17.778Z,86.77
2018-11-07T23:09:11.452Z,88.15
2018-11-07T23:11:47.733Z,86.93
2018-11-07T23:14:16.762Z,88.01
2018-11-07T23:16:52.029Z,87.48
2018-11-07T23:19:23.065Z,87.62
2018-11-07T23:27:39.645Z,87.26
2018-11-07T23:30:09.144Z,88.25
2018-11-07T23:32:38.133Z,88.21
2018-11-07T23:38:02.232Z,87.56
2018-11-07T23:40:31.591Z,86.68
2018-11-07T23:43:00.686Z,86.56
2018-11-07T23:45:29.620Z,86.66
2018-11-07T23:47:58.516Z,87.17
2018-11-07T23:50:31.410Z,87.03
2018-11-07T23:53:16.961Z,86.77
2018-11-07T23:55:54.625Z,87.24
